Latest Weather Observations for Sydney Airport

IDN60801

Issued at 5:05 pm EST Wednesday 17 September 2014 (issued every 30 minutes, with the page automatically refreshed every 10 minutes)

About weather observations | Map of weather stations | Latest weather observations for NSW | Other Formats
Station Details ID: 066037 Name: SYDNEY AIRPORT AMO Lat: -33.95 Lon: 151.17 Height: 6.0 m
Data from the previous 72 hours. | See also: Recent months at Sydney Airport
Date/Time
EST
Temp
°C
App
Temp
°C
Dew
Point
Rel
Hum
%
Delta-T
°C
Wind Press
QNH
hPa
Press
MSL
hPa
Rain
since 9 am
mm
Dir
 
Spd
km/h
Gust
km/h
Spd
kts
Gust
kts
17/05:00pm 19.8 11.8 -2.7 21 9.4 W 30 39 16 21 1011.4 1011.4 0.0
17/04:30pm 20.7 11.6 -3.8 19 10.1 W 35 48 19 26 1010.9 1010.9 0.0
17/04:00pm 20.9 11.9 -2.8 20 10.0 W 35 50 19 27 1010.7 1010.7 0.0
17/03:49pm 20.9 10.6 -3.8 18 10.2 W 41 59 22 32 1010.5 1010.5 0.0
17/03:30pm 20.4 9.7 -2.6 21 9.7 W 44 56 24 30 1010.2 1010.2 0.0
17/03:19pm 20.7 11.4 -2.4 21 9.8 W 37 56 20 30 1010.2 1010.2 0.0
17/03:00pm 21.4 12.4 -3.0 19 10.3 W 35 44 19 24 1010.1 1010.1 0.0
17/02:36pm 22.0 13.5 -3.0 18 10.6 W 32 54 17 29 1010.1 1010.1 0.0
17/02:30pm 21.5 12.6 -2.3 20 10.2 W 35 48 19 26 1010.1 1010.1 0.0
17/02:00pm 20.9 11.0 -1.1 23 9.6 W 41 50 22 27 1010.0 1010.0 0.0
17/01:53pm 21.0 11.8 -1.3 22 9.7 WSW 37 50 20 27 1010.0 1010.0 0.0
17/01:33pm 21.8 13.4 -2.1 20 10.3 WNW 32 50 17 27 1010.2 1010.2 0.0
17/01:30pm 21.4 12.7 -3.0 19 10.3 WNW 33 50 18 27 1010.2 1010.2 0.0
17/01:00pm 22.0 14.1 -1.2 21 10.2 W 30 41 16 22 1010.2 1010.2 0.0
17/12:42pm 22.0 14.4 -2.1 20 10.4 W 28 48 15 26 1010.3 1010.3 0.0
17/12:30pm 20.6 11.7 -2.2 21 9.7 W 35 44 19 24 1010.4 1010.4 0.0
17/12:00pm 20.6 13.1 -1.4 22 9.5 W 28 41 15 22 1010.7 1010.7 0.0
17/11:30am 20.3 11.2 -0.4 25 9.1 W 37 48 20 26 1010.9 1010.9 0.0
17/11:00am 19.7 11.0 -0.8 25 8.9 W 35 48 19 26 1011.2 1011.2 0.0
17/10:30am 18.8 9.9 -2.3 24 8.8 W 35 46 19 25 1011.4 1011.4 0.0
17/10:00am 19.2 9.0 -0.6 26 8.6 WSW 43 54 23 29 1011.4 1011.4 0.0
17/09:44am 18.5 9.4 -0.5 27 8.2 W 37 56 20 30 1011.6 1011.6 0.0
17/09:30am 18.5 9.2 0.6 30 7.9 W 39 54 21 29 1011.9 1011.9 0.0
17/09:00am 17.5 8.3 1.3 33 7.2 W 39 57 21 31 1012.2 1012.2 0.0
17/08:54am 17.6 8.9 1.8 34 7.1 W 37 56 20 30 1012.1 1012.1 0.0
17/08:30am 17.0 8.7 2.4 37 6.6 W 35 48 19 26 1012.2 1012.2 0.0
17/08:11am 16.9 9.2 2.3 37 6.6 W 32 50 17 27 1012.2 1012.2 0.0
17/08:00am 16.7 9.0 2.3 38 6.5 W 32 44 17 24 1012.2 1012.2 0.0
17/07:30am 16.5 9.2 2.6 39 6.3 W 30 39 16 21 1012.1 1012.1 0.0
17/07:00am 15.8 9.1 3.9 45 5.5 WNW 28 37 15 20 1011.9 1011.9 0.0
17/06:30am 15.6 10.9 5.0 49 5.0 NW 19 26 10 14 1011.6 1011.6 0.0
17/06:00am 14.3 10.6 6.2 58 3.9 NW 15 17 8 9 1011.2 1011.2 0.0
17/05:30am 14.6 10.5 6.3 57 4.0 NW 17 20 9 11 1010.8 1010.8 0.0
17/05:00am 13.7 10.1 6.7 62 3.4 N 15 17 8 9 1010.5 1010.5 0.0
17/04:30am 14.5 11.3 6.9 60 3.7 NW 13 15 7 8 1009.9 1009.9 0.0
17/04:00am 14.6 10.3 7.0 60 3.7 W 19 24 10 13 1009.7 1009.7 0.0
17/03:30am 14.8 10.8 6.6 58 4.0 WNW 17 22 9 12 1009.5 1009.5 0.0
17/03:00am 14.8 9.8 6.6 58 4.0 WNW 22 26 12 14 1009.3 1009.3 0.0
17/02:30am 14.8 9.8 6.6 58 4.0 W 22 28 12 15 1009.4 1009.4 0.0
17/02:00am 14.8 10.2 6.3 56 4.1 W 20 26 11 14 1009.4 1009.4 0.0
17/01:30am 14.6 10.1 6.3 57 4.0 NW 19 24 10 13 1009.4 1009.4 0.0
17/01:00am 14.9 10.4 5.9 55 4.3 NW 19 24 10 13 1009.5 1009.5 0.0
17/12:30am 14.8 10.8 6.6 58 4.0 NW 17 22 9 12 1009.6 1009.6 0.0
17/12:00am 14.9 11.6 6.2 56 4.2 WNW 13 15 7 8 1009.6 1009.6 0.0
 
Date/Time
EST
Temp
°C
App
Temp
°C
Dew
Point
Rel
Hum
%
Delta-T
°C
Wind Press
QNH
hPa
Press
MSL
hPa
Rain
since 9 am
mm
Dir
 
Spd
km/h
Gust
km/h
Spd
kts
Gust
kts
16/11:30pm 15.8 12.4 5.8 51 4.8 NW 13 15 7 8 1009.6 1009.6 0.0
16/11:00pm 16.2 11.5 5.1 47 5.3 NW 19 28 10 15 1009.4 1009.4 0.0
16/10:30pm 16.5 10.9 5.5 48 5.3 WNW 24 32 13 17 1009.4 1009.4 0.0
16/10:00pm 16.8 10.1 5.4 47 5.5 WNW 30 37 16 20 1009.2 1009.2 0.0
16/09:30pm 17.0 9.8 5.1 45 5.7 W 32 41 17 22 1009.3 1009.3 0.0
16/09:00pm 17.3 10.1 5.0 44 5.9 W 32 41 17 22 1009.4 1009.4 0.0
16/08:30pm 18.2 10.3 4.6 40 6.5 WNW 35 41 19 22 1009.2 1009.2 0.0
16/08:16pm 18.5 9.9 4.8 40 6.6 W 39 57 21 31 1009.2 1009.2 0.0
16/08:00pm 18.6 10.4 4.7 40 6.7 W 37 48 20 26 1009.2 1009.2 0.0
16/07:30pm 19.3 12.3 4.3 37 7.2 W 30 39 16 21 1009.0 1009.0 0.0
16/07:00pm 19.6 12.2 4.2 36 7.4 W 32 41 17 22 1008.8 1008.8 0.0
16/06:30pm 20.2 11.5 3.9 34 7.8 W 39 48 21 26 1008.1 1008.1 0.0
16/06:00pm 21.0 12.1 3.1 30 8.5 W 39 50 21 27 1007.5 1007.5 0.0
16/05:30pm 21.6 14.3 2.2 27 9.1 W 30 37 16 20 1006.9 1006.9 0.0
16/05:00pm 22.3 14.6 2.4 27 9.4 WNW 32 46 17 25 1006.5 1006.5 0.0
16/04:50pm 23.1 16.3 2.9 26 9.7 WNW 28 37 15 20 1006.3 1006.3 0.0
16/04:30pm 21.4 21.5 14.0 62 4.3 N 6 11 3 6 1006.2 1006.2 0.0
16/04:00pm 20.5 20.3 13.5 64 4.0 SSE 7 9 4 5 1006.0 1006.0 0.0
16/03:30pm 19.9 19.2 14.4 70 3.2 S 11 19 6 10 1005.7 1005.7 0.0
16/03:00pm 22.9 19.0 13.2 54 5.6 NNE 26 32 14 17 1005.3 1005.3 0.0
16/02:30pm 20.8 15.4 12.9 60 4.5 NNE 33 39 18 21 1005.2 1005.2 0.0
16/02:00pm 20.9 16.1 13.0 60 4.5 NNE 30 35 16 19 1005.7 1005.7 0.0
16/01:30pm 21.7 16.6 13.0 57 5.0 NNE 32 37 17 20 1005.8 1005.8 0.0
16/01:00pm 22.5 17.7 12.9 54 5.5 NNE 30 35 16 19 1006.3 1006.3 0.0
16/12:30pm 22.3 16.3 12.2 52 5.7 NNE 35 46 19 25 1006.9 1006.9 0.0
16/12:00pm 21.5 15.3 12.5 56 5.1 NNE 37 48 20 26 1007.6 1007.6 0.0
16/11:30am 21.3 15.6 12.9 58 4.8 NE 35 50 19 27 1008.3 1008.3 0.0
16/11:00am 20.3 15.8 13.9 66 3.7 NNE 30 39 16 21 1009.2 1009.2 0.0
16/10:54am 20.6 16.5 13.9 65 3.9 N 28 33 15 18 1009.4 1009.4 0.0
16/10:30am 19.5 15.6 14.5 73 2.9 N 28 35 15 19 1009.8 1009.8 0.0
16/10:00am 20.1 15.3 14.0 68 3.5 N 32 52 17 28 1010.3 1010.3 0.0
16/09:50am 20.2 14.8 14.0 67 3.6 N 35 46 19 25 1010.1 1010.1 0.0
16/09:30am 20.4 14.3 14.0 66 3.7 NE 39 59 21 32 1009.8 1009.8 0.0
16/09:00am 19.6 13.9 14.1 70 3.2 NE 37 48 20 26 1010.0 1010.0 0.2
16/08:43am 19.5 15.6 14.3 72 3.0 NE 28 37 15 20 1010.1 1010.1 0.2
16/08:30am 18.1 16.9 14.1 77 2.3 E 13 17 7 9 1010.6 1010.6 0.2
16/08:00am 17.1 15.3 13.2 78 2.2 W 15 19 8 10 1011.9 1011.9 0.2
16/07:30am 15.9 14.8 13.2 84 1.5 WSW 11 15 6 8 1011.5 1011.5 0.2
16/07:00am 16.6 15.9 13.2 80 1.9 WNW 9 17 5 9 1012.0 1012.0 0.2
16/06:30am 17.0 16.3 13.1 78 2.2 N 9 11 5 6 1011.8 1011.8 0.2
16/06:00am 15.7 15.3 13.0 84 1.5 W 7 9 4 5 1011.7 1011.7 0.2
16/05:30am 15.2 12.8 12.8 85 1.3 SW 17 20 9 11 1012.1 1012.1 0.2
16/05:00am 14.9 12.6 12.9 88 1.1 ENE 17 20 9 11 1012.1 1012.1 0.2
16/04:30am 15.5 14.5 12.2 81 1.8 NNW 9 13 5 7 1013.2 1013.2 0.0
16/04:00am 15.5 13.8 12.6 83 1.6 WSW 13 17 7 9 1012.5 1012.5 0.0
16/03:30am 16.5 16.0 12.7 78 2.1 WNW 7 9 4 5 1012.4 1012.4 0.0
16/03:00am 16.9 15.3 12.8 77 2.3 NNE 13 15 7 8 1012.3 1012.3 0.0
16/02:30am 16.6 14.9 12.6 77 2.2 N 13 19 7 10 1012.8 1012.8 0.0
16/02:00am 16.8 14.0 12.6 76 2.3 NNE 19 26 10 14 1012.7 1012.7 0.0
16/01:30am 16.1 13.7 12.7 80 1.9 N 17 24 9 13 1013.3 1013.3 0.0
16/01:00am 15.9 13.0 12.8 82 1.7 NE 20 26 11 14 1013.3 1013.3 0.0
16/12:30am 16.2 15.0 12.8 80 1.9 N 11 13 6 7 1014.6 1014.6 0.0
16/12:00am 16.7 13.8 12.3 75 2.4 WNW 19 24 10 13 1016.0 1016.0 0.0
 
Date/Time
EST
Temp
°C
App
Temp
°C
Dew
Point
Rel
Hum
%
Delta-T
°C
Wind Press
QNH
hPa
Press
MSL
hPa
Rain
since 9 am
mm
Dir
 
Spd
km/h
Gust
km/h
Spd
kts
Gust
kts
15/11:30pm 17.4 15.7 12.5 73 2.7 NE 13 19 7 10 1015.6 1015.6 0.0
15/11:00pm 18.0 16.1 11.8 67 3.4 NNE 13 15 7 8 1015.6 1015.6 0.0
15/10:30pm 18.2 16.6 11.6 65 3.6 NNE 11 17 6 9 1015.6 1015.6 0.0
15/10:00pm 18.5 16.9 11.6 64 3.8 NNE 11 17 6 9 1015.9 1015.9 0.0
15/09:30pm 17.5 15.9 11.6 68 3.2 NNE 11 15 6 8 1016.1 1016.1 0.0
15/09:00pm 17.8 15.4 11.4 66 3.5 NNE 15 19 8 10 1016.2 1016.2 0.0
15/08:30pm 17.4 14.3 11.5 68 3.2 NE 19 26 10 14 1016.0 1016.0 0.0
15/08:00pm 17.5 14.3 11.2 66 3.4 NE 19 26 10 14 1016.0 1016.0 0.0
15/07:30pm 17.2 14.0 11.3 68 3.2 ENE 19 26 10 14 1015.8 1015.8 0.0
15/07:00pm 17.4 14.0 11.3 67 3.3 ENE 20 28 11 15 1015.7 1015.7 0.0
15/06:30pm 17.4 14.0 11.1 66 3.4 ENE 20 28 11 15 1015.5 1015.5 0.0
15/06:00pm 17.8 14.5 10.9 64 3.7 ENE 19 26 10 14 1015.4 1015.4 0.0
15/05:30pm 17.9 13.3 11.1 64 3.7 ENE 26 32 14 17 1015.1 1015.1 0.0
15/05:00pm 18.4 13.8 11.2 63 3.9 ENE 26 33 14 18 1015.0 1015.0 0.0
15/04:30pm 18.8 13.6 10.4 58 4.5 ENE 28 33 15 18 1014.9 1014.9 0.0
15/04:00pm 19.4 14.4 9.6 53 5.2 ENE 26 33 14 18 1014.8 1014.8 0.0
15/03:30pm 19.4 14.4 9.4 52 5.3 ENE 26 33 14 18 1014.8 1014.8 0.0
15/03:00pm 19.9 15.4 10.0 53 5.3 ENE 24 32 13 17 1015.0 1015.0 0.0
15/02:30pm 19.7 14.9 10.4 55 5.0 E 26 33 14 18 1015.1 1015.1 0.0
15/02:00pm 19.8 15.3 10.1 53 5.2 E 24 32 13 17 1015.3 1015.3 0.0
15/01:30pm 20.4 16.3 10.2 52 5.5 E 22 28 12 15 1015.6 1015.6 0.0
15/01:00pm 19.9 16.3 10.0 53 5.3 ENE 19 32 10 17 1015.8 1015.8 0.0
15/12:30pm 19.3 15.5 9.9 54 5.0 E 20 28 11 15 1016.2 1016.2 0.0
15/12:00pm 20.2 16.7 10.2 52 5.4 E 19 22 10 12 1016.7 1016.7 0.0
15/11:30am 19.2 16.3 9.6 53 5.1 SE 15 17 8 9 1017.1 1017.1 0.0
15/11:00am 18.0 15.7 10.3 60 4.1 SE 13 17 7 9 1017.4 1017.4 0.0
15/10:30am 19.6 17.0 9.4 51 5.4 SE 13 15 7 8 1017.6 1017.6 0.0
15/10:00am 19.9 18.6 9.8 52 5.4 N 7 11 4 6 1017.8 1017.8 0.0
15/09:30am 18.1 18.4 12.3 69 3.2 NW 2 7 1 4 1018.2 1018.2 0.0
15/09:00am 16.7 16.0 13.3 80 1.9 WNW 9 11 5 6 1018.5 1018.5 0.0
15/08:30am 17.3 15.7 11.4 68 3.2 WNW 11 15 6 8 1018.8 1018.8 0.0
15/08:00am 16.2 14.1 11.2 72 2.7 NW 13 19 7 10 1018.8 1018.8 0.0
15/07:30am 15.5 13.8 11.2 75 2.3 NW 11 13 6 7 1018.5 1018.5 0.0
15/07:00am 14.3 11.8 11.1 81 1.7 NW 15 20 8 11 1018.5 1018.5 0.0
15/06:30am 14.0 12.3 11.2 83 1.5 NW 11 15 6 8 1018.4 1018.4 0.0
15/06:00am 14.0 12.6 11.0 82 1.6 NNW 9 11 5 6 1018.1 1018.1 0.0
15/05:30am 14.2 13.8 11.2 82 1.6 NNW 4 7 2 4 1018.0 1018.0 0.0
15/05:00am 14.2 13.3 11.4 83 1.5 NNW 7 9 4 5 1017.8 1017.8 0.0
15/04:30am 13.9 13.0 11.5 85 1.3 W 7 11 4 6 1017.9 1017.9 0.0
15/04:00am 13.6 12.7 11.5 87 1.1 W 7 9 4 5 1017.8 1017.8 0.0
15/03:30am 13.8 12.3 11.9 88 1.0 W 11 13 6 7 1017.8 1017.8 0.0
15/03:00am 14.0 12.5 12.0 88 1.1 WSW 11 15 6 8 1017.7 1017.7 0.0
15/02:30am 14.4 12.7 12.4 88 1.1 SW 13 15 7 8 1017.8 1017.8 0.0
15/02:00am 14.5 12.9 12.7 89 1.0 SW 13 17 7 9 1018.0 1018.0 0.0
15/01:30am 15.0 13.4 12.8 87 1.2 SW 13 17 7 9 1018.3 1018.3 0.0
15/01:00am 15.1 13.4 12.5 84 1.4 WSW 13 15 7 8 1018.6 1018.6 0.0
15/12:30am 15.2 12.7 12.3 83 1.6 W 17 20 9 11 1019.0 1019.0 0.0
15/12:00am 15.4 13.3 12.3 82 1.7 W 15 19 8 10 1019.0 1019.0 0.0
 
Date/Time
EST
Temp
°C
App
Temp
°C
Dew
Point
Rel
Hum
%
Delta-T
°C
Wind Press
QNH
hPa
Press
MSL
hPa
Rain
since 9 am
mm
Dir
 
Spd
km/h
Gust
km/h
Spd
kts
Gust
kts
14/11:30pm 15.6 13.9 12.5 82 1.7 W 13 15 7 8 1019.2 1019.2 0.0
14/11:00pm 15.7 14.1 12.8 83 1.6 W 13 15 7 8 1019.2 1019.2 0.0
14/10:30pm 15.7 14.1 12.8 83 1.6 W 13 20 7 11 1019.4 1019.4 0.0
14/10:00pm 16.0 14.8 12.7 81 1.8 SSW 11 15 6 8 1019.3 1019.3 0.0
14/09:30pm 16.5 14.2 13.1 80 1.9 S 17 24 9 13 1019.1 1019.1 0.0
14/09:00pm 16.7 14.8 13.1 79 2.0 S 15 20 8 11 1019.1 1019.1 0.0
14/08:30pm 16.5 13.9 13.1 80 1.9 S 19 26 10 14 1019.1 1019.1 0.0
14/08:00pm 16.4 13.9 13.4 82 1.7 S 19 28 10 15 1019.0 1019.0 0.0
14/07:30pm 16.9 13.6 14.1 83 1.6 S 24 32 13 17 1018.6 1018.6 0.0
14/07:18pm 17.2 13.6 13.1 77 2.3 S 24 30 13 16 1018.5 1018.5 0.0
14/07:00pm 17.0 13.9 13.4 79 2.0 SSE 22 28 12 15 1018.0 1018.0 0.0
14/06:30pm 17.2 13.2 12.9 76 2.4 SSE 26 30 14 16 1017.5 1017.5 0.0
14/06:00pm 17.2 13.8 13.7 80 2.0 SSE 24 30 13 16 1017.3 1017.3 0.0
14/05:30pm 17.6 13.3 12.1 70 3.0 SSE 26 32 14 17 1017.1 1017.1 0.0

Other Formats:

Comma delimited format used in spreadsheet applications
http://www.bom.gov.au/fwo/IDN60801/IDN60801.94767.axf

JavaScript Object Notation format (JSON) in row-major order
http://www.bom.gov.au/fwo/IDN60801/IDN60801.94767.json